Time;durP1;ratioP1;P1;durP2;ratioP2;P2;SDS_P1;SDS_P2;PMS_P1;PMS_P2;Temp;Humidity;BMP_temperature;BMP_pressure;BME280_temperature;BME280_humidity;BME280_pressure;Samples;Min_cycle;Max_cycle;Signal;HPM_P1;HPM_P2
2022/02/01 00:02:08;;;;;;;15.27;3.97;;;2.80;80.90;;;;;;5020356;28;20035;-73
2022/02/01 00:07:21;;;;;;;15.02;3.65;;;2.70;80.90;;;;;;5031676;28;20357;-72
2022/02/01 00:15:06;;;;;;;12.68;3.60;;;2.90;80.70;;;;;;5028284;28;20037;-72
2022/02/01 00:20:19;;;;;;;11.10;3.00;;;2.80;80.70;;;;;;5022367;28;20479;-72
2022/02/01 00:36:32;;;;;;;14.63;4.80;;;3.00;80.30;;;;;;5022511;28;20126;-72
2022/02/01 00:41:35;;;;;;;20.95;6.50;;;2.90;80.20;;;;;;5023293;28;20553;-72
2022/02/01 00:44:02;;;;;;;14.70;5.80;;;2.90;80.30;;;;;;5019691;28;20455;-73
2022/02/01 00:46:29;;;;;;;19.02;5.78;;;2.90;80.50;;;;;;5019070;28;20103;-73
2022/02/01 00:48:55;;;;;;;20.20;6.97;;;2.90;80.50;;;;;;5034974;28;20040;-73
2022/02/01 00:51:21;;;;;;;14.85;6.22;;;3.00;80.50;;;;;;5017209;28;20063;-72
2022/02/01 00:53:47;;;;;;;19.40;7.40;;;2.90;80.50;;;;;;5024585;28;20040;-71
2022/02/01 00:56:16;;;;;;;19.70;6.18;;;3.00;80.50;;;;;;5023991;28;20029;-71
2022/02/01 00:58:42;;;;;;;19.65;5.78;;;3.10;80.50;;;;;;5025199;28;20080;-72
2022/02/01 01:01:08;;;;;;;16.00;5.65;;;3.10;80.40;;;;;;5026081;28;20473;-71
2022/02/01 01:03:34;;;;;;;15.60;5.63;;;3.10;80.30;;;;;;5025579;28;20025;-73
2022/02/01 01:06:00;;;;;;;16.50;4.88;;;3.10;80.40;;;;;;5023747;28;20037;-71
2022/02/01 01:08:26;;;;;;;17.55;5.70;;;3.10;80.40;;;;;;5030415;28;20488;-71
2022/02/01 01:10:53;;;;;;;17.58;4.88;;;3.10;80.40;;;;;;5009974;28;20457;-71
2022/02/01 01:46:14;;;;;;;24.15;5.30;;;3.30;82.30;;;;;;5019046;28;21019;-72
2022/02/01 01:54:13;;;;;;;17.80;4.88;;;3.40;83.00;;;;;;4996213;28;20045;-71
2022/02/01 01:56:39;;;;;;;22.70;6.18;;;3.40;83.20;;;;;;5020827;28;20026;-73
2022/02/01 01:59:07;;;;;;;20.33;7.05;;;3.50;83.30;;;;;;5036638;28;20048;-71
2022/02/01 02:01:34;;;;;;;20.67;6.50;;;3.40;83.50;;;;;;5031565;28;20029;-72
2022/02/01 02:04:02;;;;;;;15.70;5.75;;;3.40;83.70;;;;;;5032345;28;20088;-71
2022/02/01 02:06:29;;;;;;;19.98;7.07;;;3.40;83.80;;;;;;5019396;28;20057;-71
2022/02/01 02:08:55;;;;;;;22.10;6.07;;;3.40;84.00;;;;;;5033991;28;20542;-72
2022/02/01 02:11:42;;;;;;;20.23;6.60;;;3.40;84.20;;;;;;5034210;28;20045;-71
2022/02/01 02:14:21;;;;;;;22.40;6.93;;;3.40;84.50;;;;;;5022339;28;20037;-71
2022/02/01 02:16:58;;;;;;;19.95;5.70;;;3.40;84.80;;;;;;5022922;28;20022;-73
2022/02/01 02:19:29;;;;;;;17.83;6.40;;;3.50;84.80;;;;;;5025691;28;20724;-71
2022/02/01 02:22:03;;;;;;;21.95;6.50;;;3.50;85.00;;;;;;5022336;28;20042;-72
2022/02/01 02:24:33;;;;;;;17.70;5.78;;;3.60;85.00;;;;;;5024050;28;20218;-71
2022/02/01 02:26:59;;;;;;;20.83;6.22;;;3.50;85.10;;;;;;5023389;28;20392;-72
2022/02/01 02:29:25;;;;;;;15.73;6.47;;;3.60;85.10;;;;;;5020399;28;20033;-72
2022/02/01 02:31:52;;;;;;;16.80;5.97;;;3.60;85.10;;;;;;5022750;28;20121;-72
2022/02/01 02:34:18;;;;;;;23.13;6.10;;;3.60;85.30;;;;;;5031757;28;20167;-72
2022/02/01 02:37:02;;;;;;;17.92;6.15;;;3.70;85.30;;;;;;5021095;28;20083;-71
2022/02/01 02:39:47;;;;;;;18.13;6.35;;;3.70;85.40;;;;;;5000690;28;20131;-71
2022/02/01 02:42:15;;;;;;;;;;;3.70;85.40;;;;;;5021606;28;20030;-71
2022/02/01 02:47:29;;;;;;;27.92;8.25;;;3.80;85.60;;;;;;5019478;28;20044;-70
2022/02/01 02:49:55;;;;;;;16.30;6.53;;;3.80;85.70;;;;;;5022835;28;20033;-72
2022/02/01 02:52:23;;;;;;;23.70;6.43;;;3.80;85.80;;;;;;5025524;28;20067;-73
2022/02/01 02:54:49;;;;;;;18.92;7.50;;;3.80;85.90;;;;;;5025244;28;20038;-72
2022/02/01 02:57:14;;;;;;;23.45;7.25;;;3.90;86.10;;;;;;5022530;28;20033;-73
2022/02/01 02:59:40;;;;;;;18.58;6.35;;;3.90;86.20;;;;;;5024027;28;20037;-73
2022/02/01 03:02:07;;;;;;;20.10;7.80;;;4.00;86.40;;;;;;5018850;28;20362;-72
2022/02/01 03:04:34;;;;;;;20.17;6.78;;;3.90;86.50;;;;;;5024594;28;20116;-72
2022/02/01 03:07:02;;;;;;;23.65;6.70;;;4.10;86.50;;;;;;5018737;28;20033;-73
2022/02/01 03:09:29;;;;;;;22.38;7.53;;;4.10;86.50;;;;;;5021035;28;20037;-73
2022/02/01 03:12:00;;;;;;;26.35;8.35;;;4.10;86.60;;;;;;5019422;28;20147;-73
2022/02/01 03:14:41;;;;;;;18.25;7.90;;;4.10;86.70;;;;;;5003802;28;20068;-72
2022/02/01 03:17:22;;;;;;;21.10;8.05;;;4.10;86.90;;;;;;5003328;28;20071;-72
2022/02/01 03:19:56;;;;;;;26.30;8.93;;;4.10;86.70;;;;;;5014864;28;20370;-73
2022/02/01 03:22:26;;;;;;;23.13;7.50;;;4.10;86.80;;;;;;5020903;28;20049;-71
2022/02/01 03:24:53;;;;;;;26.33;8.35;;;4.10;86.70;;;;;;5020364;28;20542;-73
2022/02/01 03:27:20;;;;;;;23.95;7.78;;;4.10;86.60;;;;;;5007201;28;20444;-73
2022/02/01 03:29:47;;;;;;;19.50;8.52;;;4.10;86.70;;;;;;5018717;28;20081;-72
2022/02/01 03:32:12;;;;;;;25.10;8.57;;;4.10;86.70;;;;;;5017163;28;20025;-72
2022/02/01 03:34:38;;;;;;;23.25;7.45;;;4.10;86.80;;;;;;5028076;28;20041;-73
2022/02/01 03:37:04;;;;;;;16.88;7.63;;;4.10;86.80;;;;;;5023636;28;20512;-72
2022/02/01 03:39:30;;;;;;;17.90;7.35;;;4.10;86.80;;;;;;5027248;28;20350;-71
2022/02/01 03:41:55;;;;;;;21.13;7.75;;;4.10;86.80;;;;;;5023570;28;20039;-73
2022/02/01 03:44:21;;;;;;;25.73;8.38;;;4.10;86.90;;;;;;5022506;28;20040;-74
2022/02/01 03:47:02;;;;;;;23.98;7.72;;;4.10;86.90;;;;;;5025137;28;20025;-75
2022/02/01 03:49:33;;;;;;;27.13;7.80;;;4.10;86.90;;;;;;5022068;28;20083;-74
2022/02/01 03:52:00;;;;;;;25.30;8.65;;;4.10;86.90;;;;;;5008683;28;20041;-74
2022/02/01 03:54:28;;;;;;;26.45;7.80;;;4.10;86.90;;;;;;5021702;28;20151;-73
2022/02/01 03:56:54;;;;;;;23.05;6.90;;;4.10;87.00;;;;;;5019059;28;20034;-72
2022/02/01 03:59:22;;;;;;;22.52;7.00;;;4.20;87.10;;;;;;5014019;28;20394;-73
2022/02/01 04:01:47;;;;;;;22.67;7.78;;;4.20;87.20;;;;;;5029914;28;20025;-73
2022/02/01 04:04:13;;;;;;;22.20;7.25;;;4.30;87.20;;;;;;5017606;28;20412;-73
2022/02/01 04:06:40;;;;;;;20.77;8.02;;;4.30;87.30;;;;;;5019460;28;20033;-74
2022/02/01 04:09:06;;;;;;;25.38;7.75;;;4.30;87.60;;;;;;5018765;28;20408;-73
2022/02/01 04:11:32;;;;;;;22.95;9.35;;;4.30;87.90;;;;;;5018940;28;20029;-72
2022/02/01 04:13:58;;;;;;;26.08;7.68;;;4.40;87.80;;;;;;5002066;28;20138;-73
2022/02/01 04:16:24;;;;;;;23.85;8.07;;;4.40;88.20;;;;;;5021977;28;20104;-73
2022/02/01 04:18:50;;;;;;;19.92;7.13;;;4.40;88.40;;;;;;5030911;28;20057;-73
2022/02/01 04:21:15;;;;;;;24.90;7.55;;;4.40;88.40;;;;;;5027553;28;20436;-72
2022/02/01 04:23:41;;;;;;;21.85;7.72;;;4.40;88.50;;;;;;5024732;28;20065;-72
2022/02/01 04:26:06;;;;;;;22.95;7.55;;;4.40;88.70;;;;;;5019799;28;20043;-73
2022/02/01 04:28:32;;;;;;;21.17;8.32;;;4.50;88.70;;;;;;5035222;28;20021;-73
2022/02/01 04:30:58;;;;;;;20.35;7.38;;;4.50;88.70;;;;;;5022680;28;20438;-72
2022/02/01 04:33:23;;;;;;;26.90;7.57;;;4.50;88.80;;;;;;5010613;28;20029;-72
2022/02/01 04:35:49;;;;;;;24.42;8.70;;;4.50;88.90;;;;;;5023161;28;20041;-74
2022/02/01 04:38:14;;;;;;;19.38;6.85;;;4.50;89.10;;;;;;5022840;28;20393;-73
2022/02/01 04:40:40;;;;;;;22.70;8.07;;;4.50;89.20;;;;;;5016173;28;20448;-73
2022/02/01 04:43:06;;;;;;;19.15;7.28;;;4.60;89.30;;;;;;5024196;28;20064;-73
2022/02/01 04:45:32;;;;;;;22.85;7.63;;;4.60;89.50;;;;;;5024992;28;20059;-73
2022/02/01 04:47:58;;;;;;;20.88;8.10;;;4.60;89.60;;;;;;5027524;28;20120;-73
2022/02/01 04:50:26;;;;;;;23.20;7.60;;;4.60;89.60;;;;;;5027485;28;20217;-72
2022/02/01 04:52:54;;;;;;;22.88;7.68;;;4.60;89.60;;;;;;5027854;28;20029;-74
2022/02/01 04:55:22;;;;;;;27.98;8.35;;;4.60;89.80;;;;;;5017802;28;20411;-73
2022/02/01 04:57:54;;;;;;;20.58;7.57;;;4.60;89.90;;;;;;5032140;28;20127;-72
2022/02/01 05:00:22;;;;;;;19.25;7.60;;;4.60;90.10;;;;;;5025375;28;20524;-73
2022/02/01 05:02:48;;;;;;;19.63;8.25;;;4.60;90.20;;;;;;5024488;28;20038;-72
2022/02/01 05:05:13;;;;;;;20.65;8.02;;;4.60;90.20;;;;;;5026533;28;20389;-72
2022/02/01 05:07:39;;;;;;;22.38;8.57;;;4.60;90.40;;;;;;5021460;28;20099;-74
2022/02/01 05:10:05;;;;;;;23.17;8.90;;;4.60;90.50;;;;;;5019978;28;20541;-74
2022/02/01 05:12:36;;;;;;;21.52;8.60;;;4.60;90.60;;;;;;5016394;28;20041;-74
2022/02/01 05:15:07;;;;;;;21.35;8.00;;;4.60;90.70;;;;;;5022772;28;20452;-73
2022/02/01 05:17:38;;;;;;;22.02;8.90;;;4.60;90.80;;;;;;5010734;28;20037;-73
2022/02/01 05:20:18;;;;;;;23.80;9.00;;;4.60;91.10;;;;;;5000061;28;20041;-74
2022/02/01 05:22:46;;;;;;;24.85;8.15;;;4.60;91.10;;;;;;5015991;28;20042;-74
2022/02/01 05:25:12;;;;;;;26.17;9.40;;;4.60;91.20;;;;;;5012979;28;20036;-73
2022/02/01 05:27:39;;;;;;;22.25;8.90;;;4.60;91.30;;;;;;5011736;28;20100;-73
2022/02/01 05:30:06;;;;;;;22.27;8.93;;;4.60;91.40;;;;;;5013426;28;20069;-74
2022/02/01 05:32:31;;;;;;;22.80;9.32;;;4.60;91.40;;;;;;5012616;28;20470;-73
2022/02/01 05:34:58;;;;;;;23.63;9.45;;;4.70;91.50;;;;;;5013880;28;20044;-74
2022/02/01 05:37:23;;;;;;;26.05;10.20;;;4.70;91.70;;;;;;5011789;28;20101;-72
2022/02/01 05:39:49;;;;;;;22.33;10.80;;;4.70;91.80;;;;;;5013596;28;20543;-73
2022/02/01 05:42:20;;;;;;;24.30;11.02;;;4.70;92.00;;;;;;5011907;28;20428;-73
2022/02/01 05:44:46;;;;;;;24.80;11.30;;;4.80;92.00;;;;;;5018431;28;20037;-74
2022/02/01 05:47:14;;;;;;;22.85;10.43;;;4.80;92.10;;;;;;5010896;28;20065;-73
2022/02/01 05:49:41;;;;;;;25.25;11.40;;;4.70;92.10;;;;;;5022126;28;20037;-72
2022/02/01 05:52:07;;;;;;;22.52;11.70;;;4.80;92.20;;;;;;5020822;28;20098;-72
2022/02/01 05:54:32;;;;;;;20.35;11.18;;;4.90;92.30;;;;;;5025521;28;20405;-72
2022/02/01 05:56:58;;;;;;;25.08;12.00;;;4.90;92.30;;;;;;5013875;28;20473;-74
2022/02/01 05:59:24;;;;;;;26.02;12.20;;;4.90;92.30;;;;;;5007772;28;20488;-73
2022/02/01 06:01:50;;;;;;;24.40;13.02;;;4.90;92.30;;;;;;5019016;28;20049;-73
2022/02/01 06:04:16;;;;;;;23.67;13.48;;;4.90;92.30;;;;;;5015198;28;20034;-73
2022/02/01 06:06:41;;;;;;;22.92;12.07;;;5.00;92.40;;;;;;4989670;28;20099;-74
2022/02/01 06:09:07;;;;;;;28.80;13.48;;;5.00;92.40;;;;;;5023131;28;20095;-73
2022/02/01 06:11:33;;;;;;;29.38;12.73;;;5.00;92.50;;;;;;5015772;28;20042;-73
2022/02/01 06:13:58;;;;;;;28.00;12.57;;;5.10;92.50;;;;;;5019086;28;20109;-73
2022/02/01 06:16:24;;;;;;;24.83;12.38;;;5.10;92.60;;;;;;5005658;28;20034;-73
2022/02/01 06:18:50;;;;;;;25.95;13.45;;;5.10;92.60;;;;;;5018906;28;20115;-74
2022/02/01 06:21:16;;;;;;;25.02;13.52;;;5.10;92.60;;;;;;5011171;28;20441;-74
2022/02/01 06:23:42;;;;;;;27.52;13.45;;;5.10;92.60;;;;;;5004692;28;20026;-73
2022/02/01 06:26:07;;;;;;;26.45;12.93;;;5.10;92.70;;;;;;5018964;28;20360;-72
2022/02/01 06:28:33;;;;;;;22.67;13.15;;;5.20;92.70;;;;;;5035551;28;20033;-72
2022/02/01 06:30:59;;;;;;;29.17;12.82;;;5.20;92.80;;;;;;5024652;28;20033;-71
2022/02/01 06:33:25;;;;;;;29.17;12.95;;;5.20;92.70;;;;;;5025102;28;20036;-73
2022/02/01 06:35:51;;;;;;;27.25;12.88;;;5.30;92.80;;;;;;5023633;28;20112;-72
2022/02/01 06:38:17;;;;;;;23.90;12.80;;;5.40;92.80;;;;;;5021894;28;20110;-71
2022/02/01 06:40:45;;;;;;;30.30;12.65;;;5.30;92.80;;;;;;5018096;28;20038;-71
2022/02/01 06:43:12;;;;;;;29.00;12.00;;;5.40;92.80;;;;;;5029744;28;20040;-72
2022/02/01 06:45:37;;;;;;;27.90;11.57;;;5.40;92.80;;;;;;5006932;28;20064;-72
2022/02/01 06:48:03;;;;;;;25.90;11.57;;;5.40;92.80;;;;;;5021127;28;20033;-71
2022/02/01 06:50:29;;;;;;;30.23;11.85;;;5.50;92.90;;;;;;5014537;28;20043;-72
2022/02/01 06:52:57;;;;;;;33.10;12.45;;;5.50;92.90;;;;;;5019416;28;20029;-74
2022/02/01 06:55:45;;;;;;;30.02;13.05;;;5.50;92.80;;;;;;5018305;28;20037;-71
2022/02/01 06:58:15;;;;;;;28.95;11.50;;;5.60;92.90;;;;;;5010830;28;20103;-72
2022/02/01 07:00:42;;;;;;;23.90;12.68;;;5.60;92.90;;;;;;5012365;28;20041;-74
2022/02/01 07:03:08;;;;;;;25.38;12.35;;;5.60;92.90;;;;;;5013216;28;20045;-72
2022/02/01 07:05:34;;;;;;;34.55;13.48;;;5.60;92.80;;;;;;5017678;28;20716;-72
2022/02/01 07:07:59;;;;;;;31.92;14.18;;;5.60;92.90;;;;;;5012839;28;20103;-72
2022/02/01 07:10:25;;;;;;;26.38;13.93;;;5.70;93.00;;;;;;5017101;28;20037;-72
2022/02/01 07:12:51;;;;;;;31.52;14.38;;;5.70;92.90;;;;;;5013527;28;20034;-72
2022/02/01 07:15:16;;;;;;;29.52;15.27;;;5.70;92.90;;;;;;5025520;28;20025;-72
2022/02/01 07:17:51;;;;;;;26.60;14.60;;;5.80;93.00;;;;;;5026217;28;20171;-71
2022/02/01 07:20:18;;;;;;;28.63;16.08;;;5.80;93.00;;;;;;5015476;28;20040;-72
2022/02/01 07:22:46;;;;;;;32.10;14.45;;;5.80;92.90;;;;;;5010037;28;20029;-72
2022/02/01 07:25:17;;;;;;;35.63;15.52;;;5.90;93.00;;;;;;5022898;28;20037;-72
2022/02/01 07:27:47;;;;;;;30.80;15.82;;;5.90;93.00;;;;;;5054059;28;20021;-71
2022/02/01 07:30:16;;;;;;;28.77;16.17;;;5.90;93.00;;;;;;5017940;28;20125;-72
2022/02/01 07:32:42;;;;;;;27.98;15.68;;;6.00;92.90;;;;;;4999955;28;20041;-73
2022/02/01 07:35:09;;;;;;;25.48;16.13;;;6.10;93.00;;;;;;5011751;28;20029;-72
2022/02/01 07:37:36;;;;;;;26.45;15.50;;;6.10;93.00;;;;;;5001138;28;20076;-73
2022/02/01 07:40:02;;;;;;;29.83;17.35;;;6.10;93.00;;;;;;5000754;28;20191;-73
2022/02/01 07:42:29;;;;;;;25.10;16.60;;;6.10;93.00;;;;;;4998308;28;20037;-72
2022/02/01 07:44:59;;;;;;;33.95;17.20;;;6.10;93.00;;;;;;5014213;28;20044;-73
2022/02/01 07:47:26;;;;;;;29.85;17.73;;;6.10;93.00;;;;;;5019504;28;20053;-72
2022/02/01 07:49:51;;;;;;;26.65;16.88;;;6.10;93.10;;;;;;5017983;28;20037;-72
2022/02/01 07:52:18;;;;;;;30.20;17.25;;;6.10;93.10;;;;;;4997626;28;20040;-75
2022/02/01 07:54:44;;;;;;;28.15;17.90;;;6.20;93.10;;;;;;5011966;28;20054;-73
2022/02/01 07:57:10;;;;;;;30.00;18.65;;;6.20;93.20;;;;;;5018946;28;20234;-72
2022/02/01 07:59:36;;;;;;;30.27;18.13;;;6.20;93.20;;;;;;5020626;28;20059;-72
2022/02/01 08:02:03;;;;;;;27.27;18.55;;;6.20;93.30;;;;;;4996454;28;20556;-72
2022/02/01 08:04:33;;;;;;;29.38;18.23;;;6.20;93.30;;;;;;5013272;28;20244;-72
2022/02/01 08:07:02;;;;;;;32.42;19.08;;;6.30;93.30;;;;;;5018782;28;20041;-73
2022/02/01 08:09:40;;;;;;;30.52;20.15;;;6.20;93.30;;;;;;5017748;28;20026;-68
2022/02/01 08:12:38;;;;;;;28.83;20.27;;;6.30;93.40;;;;;;5019418;28;20030;-70
2022/02/01 08:17:29;;;;;;;29.67;20.08;;;6.30;93.50;;;;;;5016863;28;20120;-69
2022/02/01 08:20:02;;;;;;;;;;;6.40;93.50;;;;;;5014671;28;20068;-69
2022/02/01 08:22:38;;;;;;;31.77;20.45;;;6.40;93.50;;;;;;5010471;28;19913;-69
2022/02/01 08:25:04;;;;;;;33.95;21.02;;;6.40;93.50;;;;;;5012190;28;20172;-70
2022/02/01 08:27:31;;;;;;;31.75;20.50;;;6.40;93.50;;;;;;5009532;28;20083;-69
2022/02/01 08:29:57;;;;;;;31.50;20.27;;;6.40;93.50;;;;;;5015859;28;20068;-69
2022/02/01 08:32:23;;;;;;;34.38;21.85;;;6.50;93.60;;;;;;4999542;28;20053;-70
2022/02/01 08:34:49;;;;;;;28.73;20.90;;;6.50;93.60;;;;;;5016535;28;20469;-68
2022/02/01 08:37:15;;;;;;;30.65;21.17;;;6.50;93.60;;;;;;5021546;28;20033;-70
2022/02/01 08:39:40;;;;;;;32.83;20.95;;;6.60;93.60;;;;;;5017655;28;20078;-69
2022/02/01 08:42:06;;;;;;;36.65;23.10;;;6.60;93.70;;;;;;5022490;28;20461;-68
2022/02/01 08:44:34;;;;;;;31.83;21.30;;;6.60;93.70;;;;;;5021155;28;20075;-68
2022/02/01 08:47:00;;;;;;;34.00;22.75;;;6.60;93.70;;;;;;5011107;28;20034;-69
2022/02/01 08:49:25;;;;;;;35.22;21.88;;;6.60;93.70;;;;;;5018564;28;20331;-69
2022/02/01 08:52:10;;;;;;;38.20;21.77;;;6.70;93.70;;;;;;5019186;28;20385;-68
2022/02/01 08:54:37;;;;;;;34.15;21.58;;;6.80;93.70;;;;;;5020446;28;20336;-68
2022/02/01 08:57:21;;;;;;;33.63;21.63;;;6.80;93.70;;;;;;5018244;28;20816;-68
2022/02/01 08:59:51;;;;;;;30.35;20.95;;;6.80;93.70;;;;;;5020075;28;20042;-72
2022/02/01 09:02:19;;;;;;;28.83;20.42;;;6.80;93.60;;;;;;5013220;28;20030;-71
2022/02/01 09:04:44;;;;;;;28.10;20.77;;;6.80;93.60;;;;;;5016928;28;20452;-70
2022/02/01 09:07:10;;;;;;;32.40;22.55;;;6.80;93.60;;;;;;5016645;28;20037;-68
2022/02/01 09:09:37;;;;;;;34.03;22.15;;;6.90;93.60;;;;;;5017961;28;20033;-69
2022/02/01 09:12:04;;;;;;;36.38;22.33;;;6.90;93.60;;;;;;5017409;28;20052;-69
2022/02/01 09:14:31;;;;;;;31.17;22.02;;;6.90;93.60;;;;;;5015881;28;20065;-70
2022/02/01 09:17:00;;;;;;;36.58;23.45;;;6.90;93.60;;;;;;5013234;28;20034;-67
2022/02/01 09:19:30;;;;;;;36.88;24.20;;;7.00;93.60;;;;;;5018260;28;20041;-69
2022/02/01 09:21:56;;;;;;;36.88;23.30;;;7.00;93.50;;;;;;5021408;28;20087;-69
2022/02/01 09:24:23;;;;;;;33.60;23.48;;;7.10;93.50;;;;;;5021469;28;20037;-68
2022/02/01 09:26:50;;;;;;;37.72;24.17;;;7.10;93.40;;;;;;5025272;28;20045;-68
2022/02/01 09:29:17;;;;;;;37.30;23.73;;;7.10;93.40;;;;;;5024762;28;20029;-70
2022/02/01 09:31:43;;;;;;;34.20;21.92;;;7.10;93.40;;;;;;5023613;28;20757;-68
2022/02/01 09:34:08;;;;;;;36.63;22.60;;;7.10;93.40;;;;;;5020037;28;20124;-70
2022/02/01 09:36:34;;;;;;;33.28;22.90;;;7.10;93.50;;;;;;5017517;28;20473;-68
2022/02/01 09:39:00;;;;;;;38.78;23.33;;;7.20;93.50;;;;;;5017251;28;20057;-69
2022/02/01 09:41:28;;;;;;;38.72;22.58;;;7.30;93.50;;;;;;5022838;28;20116;-69
2022/02/01 09:43:54;;;;;;;36.30;21.98;;;7.30;93.40;;;;;;5020907;28;20456;-69
2022/02/01 09:46:21;;;;;;;33.70;20.85;;;7.30;93.50;;;;;;5019017;28;20150;-69
2022/02/01 09:48:47;;;;;;;35.60;21.45;;;7.40;93.40;;;;;;5029798;28;20499;-73
2022/02/01 09:51:13;;;;;;;35.92;20.02;;;7.40;93.50;;;;;;5020135;28;20033;-70
2022/02/01 09:53:39;;;;;;;32.97;20.08;;;7.30;93.50;;;;;;5023208;28;20047;-70
2022/02/01 09:56:06;;;;;;;32.15;19.45;;;7.40;93.50;;;;;;5019609;28;20046;-69
2022/02/01 09:58:36;;;;;;;29.35;17.67;;;7.40;93.60;;;;;;5014487;28;20041;-71
2022/02/01 10:01:18;;;;;;;33.55;18.13;;;7.40;93.60;;;;;;5006147;28;20053;-70
2022/02/01 10:03:46;;;;;;;34.25;18.13;;;7.50;93.60;;;;;;5007807;28;20465;-70
2022/02/01 10:06:17;;;;;;;31.83;18.10;;;7.50;93.60;;;;;;5007071;28;20042;-71
2022/02/01 10:08:46;;;;;;;34.17;17.73;;;7.60;93.70;;;;;;5015148;28;20045;-72
2022/02/01 10:11:13;;;;;;;27.95;17.88;;;7.60;93.70;;;;;;5015616;28;20337;-71
2022/02/01 10:13:42;;;;;;;32.92;17.60;;;7.60;93.70;;;;;;4999603;28;20100;-69
2022/02/01 10:16:26;;;;;;;32.03;16.58;;;7.60;93.80;;;;;;5000089;28;20053;-69
2022/02/01 10:18:52;;;;;;;29.00;16.63;;;7.60;93.70;;;;;;5002284;28;20026;-70
2022/02/01 10:21:18;;;;;;;27.65;15.93;;;7.60;93.80;;;;;;5009607;28;20061;-71
2022/02/01 10:23:45;;;;;;;31.42;17.80;;;7.70;93.80;;;;;;5012907;28;20059;-68
2022/02/01 10:26:22;;;;;;;37.28;18.55;;;7.70;93.80;;;;;;5024286;28;20111;-69
2022/02/01 10:31:47;;;;;;;34.63;20.25;;;7.80;93.80;;;;;;5021985;28;20045;-68
2022/02/01 10:34:39;;;;;;;31.70;19.25;;;7.90;93.90;;;;;;5033893;28;20029;-66
2022/02/01 10:37:24;;;;;;;38.70;19.70;;;7.90;93.90;;;;;;5046069;28;20112;-68
2022/02/01 10:39:58;;;;;;;37.92;23.42;;;7.90;93.80;;;;;;5018637;28;20122;-67
2022/02/01 10:42:26;;;;;;;43.65;24.15;;;8.00;93.70;;;;;;5035618;28;20034;-67
2022/02/01 10:44:54;;;;;;;41.28;22.60;;;8.00;93.60;;;;;;5044859;28;20071;-67
2022/02/01 10:47:42;;;;;;;43.58;21.08;;;8.10;93.50;;;;;;5036305;28;20042;-67
2022/02/01 10:50:11;;;;;;;35.53;15.77;;;8.10;93.60;;;;;;5054356;28;20061;-68
2022/02/01 10:52:40;;;;;;;30.50;13.57;;;8.10;93.40;;;;;;5037225;28;20075;-67
2022/02/01 10:55:08;;;;;;;35.95;14.93;;;8.20;93.30;;;;;;5034355;28;20044;-68
2022/02/01 10:57:34;;;;;;;30.08;12.40;;;8.30;93.20;;;;;;5029745;28;20026;-68
2022/02/01 11:00:01;;;;;;;34.50;11.55;;;8.40;92.90;;;;;;5034812;28;20056;-68
2022/02/01 11:02:28;;;;;;;31.92;12.90;;;8.40;92.70;;;;;;5051423;28;20025;-68
2022/02/01 11:04:56;;;;;;;30.95;11.27;;;8.50;92.70;;;;;;5038857;28;20061;-68
2022/02/01 11:07:22;;;;;;;25.77;10.95;;;8.50;92.40;;;;;;5036450;28;21708;-68
2022/02/01 11:09:48;;;;;;;24.83;9.98;;;8.50;92.30;;;;;;5033795;28;20041;-68
2022/02/01 11:12:14;;;;;;;22.00;9.57;;;8.50;92.10;;;;;;5035554;28;20072;-67
2022/02/01 11:14:46;;;;;;;22.20;9.82;;;8.60;91.90;;;;;;5035441;28;20355;-68
2022/02/01 11:17:15;;;;;;;28.00;9.45;;;8.60;91.80;;;;;;5030644;28;20072;-67
2022/02/01 11:19:51;;;;;;;25.80;9.48;;;8.70;91.60;;;;;;5034327;28;20461;-67
2022/02/01 11:22:31;;;;;;;22.05;8.88;;;8.80;91.40;;;;;;5015704;28;20071;-67
2022/02/01 11:25:06;;;;;;;27.27;9.48;;;8.80;90.90;;;;;;5016336;28;20032;-68
2022/02/01 11:27:43;;;;;;;;;;;8.90;90.90;;;;;;5028853;28;20474;-69
2022/02/01 11:30:11;;;;;;;26.30;10.18;;;8.90;90.60;;;;;;5010519;28;20360;-69
2022/02/01 11:32:48;;;;;;;22.38;9.57;;;9.00;90.40;;;;;;5004633;28;20040;-69
2022/02/01 11:35:21;;;;;;;26.95;10.60;;;9.00;90.40;;;;;;4986030;28;20037;-69
2022/02/01 11:37:59;;;;;;;26.45;10.02;;;9.00;90.30;;;;;;4986479;28;20483;-71
2022/02/01 11:40:32;;;;;;;25.05;9.50;;;9.10;90.00;;;;;;5000844;28;20400;-70
2022/02/01 11:43:08;;;;;;;20.42;8.75;;;9.10;89.60;;;;;;4998832;28;20048;-69
2022/02/01 11:45:55;;;;;;;25.27;7.85;;;9.20;89.50;;;;;;5001526;28;20041;-70
2022/02/01 11:48:24;;;;;;;26.95;9.13;;;9.30;89.20;;;;;;5001032;28;20033;-69
2022/02/01 11:50:59;;;;;;;20.55;8.30;;;9.40;88.90;;;;;;4987127;28;20148;-72
2022/02/01 11:53:29;;;;;;;27.92;9.13;;;9.40;88.90;;;;;;5002542;28;20064;-68
2022/02/01 11:55:57;;;;;;;27.90;9.05;;;9.40;88.70;;;;;;5001805;28;20586;-70
2022/02/01 11:58:37;;;;;;;18.58;7.70;;;9.40;88.80;;;;;;5003188;28;20531;-71
2022/02/01 12:01:25;;;;;;;26.50;9.20;;;9.50;88.90;;;;;;4998283;28;20485;-68
2022/02/01 12:04:16;;;;;;;24.25;8.20;;;9.50;89.00;;;;;;5004078;28;20128;-69
2022/02/01 12:06:46;;;;;;;19.58;7.82;;;9.60;88.80;;;;;;5004565;28;20142;-68
2022/02/01 12:09:24;;;;;;;20.83;8.57;;;9.60;88.90;;;;;;4997399;28;20117;-69
2022/02/01 12:11:58;;;;;;;18.75;8.38;;;9.60;88.80;;;;;;4999951;28;20030;-69
2022/02/01 12:14:26;;;;;;;19.70;9.00;;;9.60;88.90;;;;;;5002929;28;20461;-67
2022/02/01 12:16:54;;;;;;;21.10;9.35;;;9.60;88.70;;;;;;5032740;28;20021;-68
2022/02/01 12:19:23;;;;;;;23.55;10.00;;;9.60;88.60;;;;;;5014055;28;20045;-70
2022/02/01 12:22:09;;;;;;;17.48;7.90;;;9.70;88.70;;;;;;5018184;28;20060;-69
2022/02/01 12:24:35;;;;;;;20.80;7.32;;;9.70;88.40;;;;;;5009185;28;20174;-70
2022/02/01 12:27:02;;;;;;;18.52;6.97;;;9.70;88.50;;;;;;5022301;28;20037;-71
2022/02/01 12:29:29;;;;;;;18.05;6.22;;;9.80;88.20;;;;;;5003329;28;20030;-69
2022/02/01 12:31:55;;;;;;;20.70;6.97;;;9.80;87.70;;;;;;5024867;28;20075;-70
2022/02/01 12:34:23;;;;;;;26.10;7.00;;;10.00;87.10;;;;;;5016336;28;20357;-70
2022/02/01 12:36:52;;;;;;;18.73;7.20;;;10.00;87.10;;;;;;5023988;28;20147;-69
2022/02/01 12:39:44;;;;;;;18.38;8.27;;;10.00;87.10;;;;;;5009126;28;20048;-68
2022/02/01 12:42:14;;;;;;;20.27;8.00;;;10.00;87.20;;;;;;5000248;28;20038;-69
2022/02/01 12:47:08;;;;;;;15.07;6.00;;;10.10;86.70;;;;;;5003140;28;20037;-69
2022/02/01 12:49:42;;;;;;;19.50;6.03;;;10.10;86.70;;;;;;5011672;28;20583;-69
2022/02/01 12:52:19;;;;;;;16.13;5.38;;;10.10;86.70;;;;;;5014026;28;20164;-69
2022/02/01 12:54:45;;;;;;;15.15;6.03;;;10.10;86.70;;;;;;5010695;28;20064;-69
2022/02/01 12:57:14;;;;;;;17.48;6.40;;;10.10;86.60;;;;;;5017491;28;20025;-68
2022/02/01 12:59:51;;;;;;;20.85;6.18;;;10.10;86.50;;;;;;5020171;28;20060;-69
2022/02/01 13:02:26;;;;;;;17.77;5.50;;;10.20;86.40;;;;;;5020104;28;20037;-69
2022/02/01 13:04:56;;;;;;;19.15;6.68;;;10.30;86.30;;;;;;5017483;28;20120;-71
2022/02/01 13:21:23;;;;;;;19.17;6.28;;;10.50;85.90;;;;;;5017481;28;20129;-69
2022/02/01 13:23:52;;;;;;;19.15;6.35;;;10.60;85.30;;;;;;5023328;28;20029;-69
2022/02/01 13:26:24;;;;;;;18.38;7.18;;;10.50;85.60;;;;;;5012552;28;20080;-70
2022/02/01 13:28:59;;;;;;;18.88;7.40;;;10.60;85.50;;;;;;5012526;28;20037;-68
2022/02/01 13:31:29;;;;;;;17.15;8.10;;;10.60;85.50;;;;;;5011467;28;20100;-68
2022/02/01 13:34:00;;;;;;;16.60;7.85;;;10.70;85.30;;;;;;5017482;28;20041;-69
2022/02/01 13:36:27;;;;;;;18.95;7.60;;;10.80;85.30;;;;;;5022263;28;20571;-69
2022/02/01 13:38:58;;;;;;;19.27;8.38;;;10.70;85.00;;;;;;5010928;28;20152;-68
2022/02/01 13:41:27;;;;;;;19.23;8.85;;;10.90;84.90;;;;;;4995985;28;20073;-69
2022/02/01 13:44:01;;;;;;;17.73;8.95;;;10.90;84.90;;;;;;5017887;28;20481;-69
2022/02/01 13:46:33;;;;;;;18.27;7.97;;;10.90;84.90;;;;;;5014605;28;20465;-68
2022/02/01 13:49:03;;;;;;;19.98;8.18;;;11.00;84.70;;;;;;5017170;28;20428;-68
2022/02/01 13:51:29;;;;;;;22.17;9.65;;;10.90;84.80;;;;;;5013856;28;20041;-70
2022/02/01 13:54:00;;;;;;;14.82;8.23;;;10.90;84.80;;;;;;5020353;28;20072;-69
2022/02/01 13:56:29;;;;;;;18.15;7.95;;;11.00;84.90;;;;;;5021779;28;20033;-69
2022/02/01 13:59:11;;;;;;;17.70;8.82;;;11.00;84.60;;;;;;5017242;28;20499;-69
2022/02/01 14:01:41;;;;;;;17.65;7.97;;;11.00;84.90;;;;;;5016350;28;20041;-70
2022/02/01 14:04:27;;;;;;;20.38;7.50;;;11.00;84.90;;;;;;5014393;28;20049;-70
2022/02/01 14:09:58;;;;;;;18.50;7.35;;;11.10;85.00;;;;;;5021024;28;20580;-68
2022/02/01 14:13:04;;;;;;;19.15;6.82;;;11.10;84.70;;;;;;5011900;28;20061;-69
2022/02/01 14:32:06;;;;;;;16.88;6.68;;;11.10;84.90;;;;;;5013976;28;20060;-69
2022/02/01 14:32:41;;;;;;;16.10;5.95;;;11.00;84.90;;;;;;5019522;28;20037;-69
2022/02/01 14:34:56;;;;;;;16.95;5.82;;;11.00;85.10;;;;;;5018152;28;20132;-69
2022/02/01 14:37:37;;;;;;;17.65;6.97;;;11.00;85.30;;;;;;5004014;28;20477;-69
2022/02/01 14:45:18;;;;;;;17.95;6.10;;;11.10;85.40;;;;;;5019653;28;20037;-69
2022/02/01 14:47:44;;;;;;;15.07;5.35;;;11.20;85.00;;;;;;5019448;28;20532;-69